createdAt,value
2018-10-05T00:00:14.659Z,0
2018-10-05T00:01:23.296Z,0
2018-10-05T00:02:31.948Z,0
2018-10-05T00:03:40.850Z,0
2018-10-05T00:04:49.492Z,0
2018-10-05T00:05:58.135Z,0
2018-10-05T00:07:06.768Z,0
2018-10-05T00:08:15.409Z,0
2018-10-05T00:09:24.046Z,0
2018-10-05T00:10:32.960Z,0
2018-10-05T00:11:41.596Z,0
2018-10-05T00:12:50.291Z,0
2018-10-05T00:13:59.147Z,0
2018-10-05T00:15:08.323Z,0
2018-10-05T00:16:16.960Z,0
2018-10-05T00:17:25.606Z,0
2018-10-05T00:18:34.241Z,0
2018-10-05T00:19:42.885Z,0
2018-10-05T00:20:51.794Z,0
2018-10-05T00:22:00.436Z,0
2018-10-05T00:23:09.077Z,0
2018-10-05T00:24:17.718Z,0
2018-10-05T00:25:26.363Z,0
2018-10-05T00:26:35.006Z,0
2018-10-05T00:27:43.646Z,0
2018-10-05T00:28:52.284Z,0
2018-10-05T00:30:00.932Z,0
2018-10-05T00:31:09.570Z,0
2018-10-05T00:32:18.252Z,0
2018-10-05T00:33:26.852Z,0
2018-10-05T00:34:35.769Z,0
2018-10-05T00:35:44.407Z,0
2018-10-05T00:36:53.051Z,0
2018-10-05T00:38:01.754Z,0
2018-10-05T00:39:10.328Z,0
2018-10-05T00:40:18.971Z,0
2018-10-05T00:41:27.616Z,0
2018-10-05T00:42:36.260Z,0
2018-10-05T00:43:44.892Z,0
2018-10-05T00:44:53.803Z,0
2018-10-05T00:46:02.439Z,0
2018-10-05T00:47:11.084Z,0
2018-10-05T00:48:19.720Z,0
2018-10-05T00:49:28.628Z,0
2018-10-05T00:50:37.528Z,0
2018-10-05T00:51:46.177Z,0
2018-10-05T00:52:54.867Z,0
2018-10-05T00:54:03.454Z,0
2018-10-05T00:55:12.093Z,0
2018-10-05T00:56:20.744Z,0
2018-10-05T00:57:29.389Z,0
2018-10-05T00:58:38.290Z,0
2018-10-05T00:59:46.927Z,0
2018-10-05T01:00:55.568Z,0
2018-10-05T01:02:04.747Z,0
2018-10-05T01:03:13.380Z,0
2018-10-05T01:04:22.025Z,0
2018-10-05T01:05:30.657Z,0
2018-10-05T01:06:39.306Z,0
2018-10-05T01:07:47.943Z,0
2018-10-05T01:08:56.590Z,0
2018-10-05T01:10:05.224Z,0
2018-10-05T01:11:14.144Z,0
2018-10-05T01:12:22.780Z,0
2018-10-05T01:13:31.428Z,0
2018-10-05T01:14:40.060Z,0
2018-10-05T01:15:48.702Z,0
2018-10-05T01:16:57.614Z,0
2018-10-05T01:18:06.255Z,0
2018-10-05T01:19:14.896Z,0
2018-10-05T01:20:23.529Z,0
2018-10-05T01:21:32.175Z,0
2018-10-05T01:22:40.812Z,0
2018-10-05T01:23:49.465Z,0
2018-10-05T01:24:58.481Z,0
2018-10-05T01:26:07.009Z,0
2018-10-05T01:27:15.641Z,0
2018-10-05T01:28:24.289Z,0
2018-10-05T01:29:33.186Z,0
2018-10-05T01:30:41.828Z,0
2018-10-05T01:31:50.468Z,0
2018-10-05T01:32:59.375Z,0
2018-10-05T01:34:08.012Z,0
2018-10-05T01:35:16.654Z,0
2018-10-05T01:36:25.294Z,0
2018-10-05T01:37:33.934Z,0
2018-10-05T01:38:42.588Z,0
2018-10-05T01:39:51.226Z,0
2018-10-05T01:40:59.864Z,0
2018-10-05T01:42:08.823Z,0
2018-10-05T01:43:17.469Z,0
2018-10-05T01:44:26.371Z,0
2018-10-05T01:45:35.012Z,0
2018-10-05T01:46:43.648Z,0
2018-10-05T01:47:52.290Z,0
2018-10-05T01:49:00.930Z,0
2018-10-05T01:50:09.576Z,0
2018-10-05T01:51:18.213Z,0
2018-10-05T01:52:26.857Z,0
2018-10-05T01:53:35.497Z,0
2018-10-05T01:54:44.140Z,0
2018-10-05T01:55:52.783Z,0
2018-10-05T01:57:01.689Z,0
2018-10-05T01:58:10.330Z,0
2018-10-05T01:59:19.235Z,0
2018-10-05T02:00:27.886Z,0
2018-10-05T02:01:36.788Z,0
2018-10-05T02:02:45.433Z,0
2018-10-05T02:03:54.068Z,0
2018-10-05T02:05:02.713Z,0
2018-10-05T02:06:11.613Z,0
2018-10-05T02:07:20.259Z,0
2018-10-05T02:08:28.899Z,0
2018-10-05T02:09:37.545Z,0
2018-10-05T02:10:46.182Z,0
2018-10-05T02:11:54.822Z,0
2018-10-05T02:13:03.464Z,0
2018-10-05T02:14:12.102Z,0
2018-10-05T02:15:20.745Z,0
2018-10-05T02:16:29.385Z,0
2018-10-05T02:17:38.024Z,0
2018-10-05T02:18:46.660Z,0
2018-10-05T02:19:55.305Z,0
2018-10-05T02:21:03.948Z,0
2018-10-05T02:22:12.583Z,0
2018-10-05T02:23:21.219Z,0
2018-10-05T02:24:29.862Z,0
2018-10-05T02:25:38.501Z,0
2018-10-05T02:26:47.148Z,0
2018-10-05T02:27:55.777Z,0
2018-10-05T02:29:04.418Z,0
2018-10-05T02:30:13.626Z,0
2018-10-05T02:31:22.526Z,0
2018-10-05T02:32:31.188Z,0
2018-10-05T02:33:39.819Z,0
2018-10-05T02:34:48.462Z,0
2018-10-05T02:35:57.095Z,0
2018-10-05T02:37:05.753Z,0
2018-10-05T02:38:14.647Z,0
2018-10-05T02:39:23.552Z,0
2018-10-05T02:40:32.191Z,0
2018-10-05T02:41:40.860Z,0
2018-10-05T02:42:49.473Z,0
2018-10-05T02:43:58.115Z,0
2018-10-05T02:45:07.013Z,0
2018-10-05T02:46:15.664Z,0
2018-10-05T02:47:24.872Z,0
2018-10-05T02:48:33.509Z,0
2018-10-05T02:49:42.144Z,0
2018-10-05T02:50:50.803Z,0
2018-10-05T02:51:59.716Z,0
2018-10-05T02:53:08.357Z,0
2018-10-05T02:54:17.012Z,0
2018-10-05T02:55:25.646Z,0
2018-10-05T02:56:34.296Z,0
2018-10-05T02:57:43.199Z,0
2018-10-05T02:58:51.842Z,0
2018-10-05T03:00:00.474Z,0
2018-10-05T03:01:09.130Z,0
2018-10-05T03:02:17.772Z,0
2018-10-05T03:03:26.943Z,0
2018-10-05T03:04:35.577Z,0
2018-10-05T03:05:44.215Z,0
2018-10-05T03:06:52.860Z,0
2018-10-05T03:08:01.508Z,0
2018-10-05T03:09:10.427Z,0
2018-10-05T03:10:19.330Z,0
2018-10-05T03:11:27.979Z,0
2018-10-05T03:12:36.615Z,0
2018-10-05T03:13:45.266Z,0
2018-10-05T03:14:53.892Z,0
2018-10-05T03:16:02.535Z,0
2018-10-05T03:17:11.449Z,0
2018-10-05T03:18:20.366Z,0
2018-10-05T03:19:29.001Z,0
2018-10-05T03:20:37.644Z,0
2018-10-05T03:21:46.282Z,0
2018-10-05T03:22:55.193Z,0
2018-10-05T03:24:03.833Z,0
2018-10-05T03:25:12.474Z,0
2018-10-05T03:26:21.113Z,0
2018-10-05T03:27:30.020Z,0
2018-10-05T03:28:38.655Z,0
2018-10-05T03:29:47.302Z,0
2018-10-05T03:30:56.218Z,0
2018-10-05T03:32:04.875Z,0
2018-10-05T03:33:13.504Z,0
2018-10-05T03:34:22.414Z,0
2018-10-05T03:35:31.051Z,0
2018-10-05T03:36:39.703Z,0
2018-10-05T03:37:48.334Z,0
2018-10-05T03:38:56.976Z,0
2018-10-05T03:40:05.877Z,0
2018-10-05T03:41:14.783Z,0
2018-10-05T03:42:23.419Z,0
2018-10-05T03:43:32.054Z,0
2018-10-05T03:44:40.694Z,0
2018-10-05T03:45:49.344Z,0
2018-10-05T03:46:58.023Z,0
2018-10-05T03:48:06.664Z,0
2018-10-05T03:49:16.042Z,0
2018-10-05T03:50:24.739Z,0
2018-10-05T03:51:33.434Z,0
2018-10-05T03:52:42.495Z,0
2018-10-05T03:53:51.476Z,0
2018-10-05T03:55:00.219Z,0
2018-10-05T03:56:09.134Z,0
2018-10-05T03:57:17.802Z,0
2018-10-05T03:58:26.424Z,0
2018-10-05T03:59:35.054Z,0
2018-10-05T04:00:43.961Z,0
2018-10-05T04:01:52.606Z,0
2018-10-05T04:03:01.246Z,0
2018-10-05T04:04:09.887Z,0
2018-10-05T04:05:18.517Z,0
2018-10-05T04:06:27.162Z,0
2018-10-05T04:07:36.061Z,0
2018-10-05T04:08:44.708Z,0
2018-10-05T04:09:53.339Z,0
2018-10-05T04:11:01.979Z,0
2018-10-05T04:12:10.882Z,0
2018-10-05T04:13:19.528Z,0
2018-10-05T04:14:28.160Z,0
2018-10-05T04:15:37.063Z,0
2018-10-05T04:16:45.966Z,0
2018-10-05T04:17:54.616Z,0
2018-10-05T04:19:03.253Z,0
2018-10-05T04:20:11.889Z,0
2018-10-05T04:21:20.529Z,0
2018-10-05T04:22:29.163Z,0
2018-10-05T04:23:37.824Z,0
2018-10-05T04:24:46.458Z,0
2018-10-05T04:25:55.361Z,0
2018-10-05T04:27:04.109Z,0
2018-10-05T04:28:12.637Z,0
2018-10-05T04:29:21.276Z,0
2018-10-05T04:30:30.178Z,0
2018-10-05T04:31:38.810Z,0
2018-10-05T04:32:47.459Z,0
2018-10-05T04:33:56.091Z,0
2018-10-05T04:35:04.995Z,0
2018-10-05T04:36:13.628Z,0
2018-10-05T04:37:22.538Z,0
2018-10-05T04:38:31.445Z,0
2018-10-05T04:39:40.091Z,0
2018-10-05T04:40:48.738Z,0
2018-10-05T04:41:57.373Z,0
2018-10-05T04:43:06.025Z,0
2018-10-05T04:44:14.925Z,0
2018-10-05T04:45:23.831Z,0
2018-10-05T04:46:32.464Z,0
2018-10-05T04:47:41.368Z,0
2018-10-05T04:48:50.009Z,0
2018-10-05T04:49:58.652Z,0
2018-10-05T04:51:07.291Z,0
2018-10-05T04:52:15.935Z,0
2018-10-05T04:53:24.837Z,0
2018-10-05T04:54:33.489Z,0
2018-10-05T04:55:42.398Z,0
2018-10-05T04:56:51.413Z,0
2018-10-05T04:58:00.024Z,0
2018-10-05T04:59:08.660Z,0
2018-10-05T05:00:17.303Z,0
2018-10-05T05:01:25.943Z,0
2018-10-05T05:02:34.583Z,0
2018-10-05T05:03:43.219Z,0
2018-10-05T05:04:52.129Z,0
2018-10-05T05:06:00.769Z,0
2018-10-05T05:07:09.414Z,4
2018-10-05T05:08:18.045Z,4
2018-10-05T05:09:26.688Z,0
2018-10-05T05:10:35.328Z,4
2018-10-05T05:11:43.969Z,4
2018-10-05T05:12:52.879Z,4
2018-10-05T05:14:01.520Z,4
2018-10-05T05:15:10.159Z,4
2018-10-05T05:16:18.803Z,8
2018-10-05T05:17:27.449Z,8
2018-10-05T05:18:36.346Z,8
2018-10-05T05:19:45.087Z,12
2018-10-05T05:20:53.894Z,16
2018-10-05T05:22:02.570Z,16
2018-10-05T05:23:11.468Z,24
2018-10-05T05:24:20.107Z,24
2018-10-05T05:25:28.751Z,32
2018-10-05T05:26:37.390Z,36
2018-10-05T05:27:46.294Z,40
2018-10-05T05:28:54.930Z,44
2018-10-05T05:30:03.573Z,52
2018-10-05T05:31:12.218Z,60
2018-10-05T05:32:21.384Z,68
2018-10-05T05:33:30.037Z,76
2018-10-05T05:34:38.658Z,84
2018-10-05T05:35:47.295Z,92
2018-10-05T05:36:56.201Z,104
2018-10-05T05:38:04.840Z,112
2018-10-05T05:39:13.481Z,120
2018-10-05T05:40:22.691Z,136
2018-10-05T05:41:31.988Z,148
2018-10-05T05:42:40.624Z,164
2018-10-05T05:43:49.528Z,176
2018-10-05T05:44:58.429Z,192
2018-10-05T05:46:07.075Z,204
2018-10-05T05:47:15.975Z,220
2018-10-05T05:48:24.618Z,236
2018-10-05T05:49:33.256Z,252
2018-10-05T05:50:42.156Z,268
2018-10-05T05:51:50.795Z,284
2018-10-05T05:52:59.444Z,304
2018-10-05T05:54:08.574Z,320
2018-10-05T05:55:17.619Z,340
2018-10-05T05:56:26.260Z,356
2018-10-05T05:57:34.898Z,376
2018-10-05T05:58:43.544Z,392
2018-10-05T05:59:52.179Z,412
2018-10-05T06:01:00.872Z,428
2018-10-05T06:02:09.713Z,448
2018-10-05T06:03:18.360Z,468
2018-10-05T06:04:26.990Z,484
2018-10-05T06:05:35.632Z,508
2018-10-05T06:06:44.268Z,524
2018-10-05T06:07:52.913Z,544
2018-10-05T06:09:01.551Z,560
2018-10-05T06:10:10.190Z,580
2018-10-05T06:11:18.825Z,600
2018-10-05T06:12:27.465Z,620
2018-10-05T06:13:36.373Z,632
2018-10-05T06:14:45.015Z,652
2018-10-05T06:15:53.678Z,664
2018-10-05T06:17:02.295Z,684
2018-10-05T06:18:10.941Z,700
2018-10-05T06:19:19.846Z,720
2018-10-05T06:20:28.488Z,732
2018-10-05T06:21:37.555Z,744
2018-10-05T06:22:46.678Z,764
2018-10-05T06:23:55.315Z,780
2018-10-05T06:25:04.234Z,796
2018-10-05T06:26:12.862Z,808
2018-10-05T06:27:21.914Z,824
2018-10-05T06:28:30.500Z,848
2018-10-05T06:29:39.145Z,864
2018-10-05T06:30:47.964Z,880
2018-10-05T06:31:56.958Z,892
2018-10-05T06:33:05.654Z,908
2018-10-05T06:34:14.243Z,924
2018-10-05T06:35:22.892Z,936
2018-10-05T06:36:31.523Z,948
2018-10-05T06:37:40.768Z,964
2018-10-05T06:38:49.446Z,980
2018-10-05T06:39:58.336Z,992
2018-10-05T06:41:07.233Z,1008
2018-10-05T06:42:16.026Z,1012
2018-10-05T06:43:24.512Z,1020
2018-10-05T06:44:33.270Z,1028
2018-10-05T06:45:41.910Z,1036
2018-10-05T06:46:50.548Z,1052
2018-10-05T06:47:59.178Z,1064
2018-10-05T06:49:07.815Z,1076
2018-10-05T06:50:16.462Z,1088
2018-10-05T06:51:25.369Z,1100
2018-10-05T06:52:34.112Z,1068
2018-10-05T06:53:42.741Z,1116
2018-10-05T06:54:51.395Z,1116
2018-10-05T06:56:00.030Z,1124
2018-10-05T06:57:08.676Z,1132
2018-10-05T06:58:17.307Z,1144
2018-10-05T06:59:26.220Z,1152
2018-10-05T07:00:34.856Z,1164
2018-10-05T07:01:43.551Z,1168
2018-10-05T07:02:52.127Z,1176
2018-10-05T07:04:01.045Z,1188
2018-10-05T07:05:09.688Z,1200
2018-10-05T07:06:18.336Z,1220
2018-10-05T07:07:27.025Z,1232
2018-10-05T07:08:35.894Z,1248
2018-10-05T07:09:44.810Z,1264
2018-10-05T07:10:53.721Z,1280
2018-10-05T07:12:02.371Z,1292
2018-10-05T07:13:11.004Z,1304
2018-10-05T07:14:19.646Z,1312
2018-10-05T07:15:28.286Z,1316
2018-10-05T07:16:36.939Z,1312
2018-10-05T07:17:45.570Z,1324
2018-10-05T07:18:54.214Z,1340
2018-10-05T07:20:02.859Z,1348
2018-10-05T07:21:11.507Z,1352
2018-10-05T07:22:20.178Z,1360
2018-10-05T07:23:29.405Z,1372
2018-10-05T07:24:38.049Z,1384
2018-10-05T07:25:46.955Z,1388
2018-10-05T07:26:55.852Z,1376
2018-10-05T07:28:04.505Z,1376
2018-10-05T07:29:13.411Z,1404
2018-10-05T07:30:22.060Z,1412
2018-10-05T07:31:31.216Z,1416
2018-10-05T07:32:39.862Z,1428
2018-10-05T07:33:48.498Z,1428
2018-10-05T07:34:57.736Z,1436
2018-10-05T07:36:06.366Z,1444
2018-10-05T07:37:15.030Z,1448
2018-10-05T07:38:24.538Z,1452
2018-10-05T07:39:33.190Z,1456
2018-10-05T07:40:42.091Z,1464
2018-10-05T07:41:50.727Z,1468
2018-10-05T07:42:59.388Z,1468
2018-10-05T07:44:08.645Z,1464
2018-10-05T07:45:17.296Z,1460
2018-10-05T07:46:25.931Z,1452
2018-10-05T07:47:34.837Z,1452
2018-10-05T07:48:43.467Z,1452
2018-10-05T07:49:52.380Z,1452
2018-10-05T07:51:01.016Z,1448
2018-10-05T07:52:09.657Z,1452
2018-10-05T07:53:18.287Z,1452
2018-10-05T07:54:26.934Z,1460
2018-10-05T07:55:35.571Z,1464
2018-10-05T07:56:44.485Z,1468
2018-10-05T07:57:53.227Z,1472
2018-10-05T07:59:01.764Z,1480
2018-10-05T08:00:10.668Z,1484
2018-10-05T08:01:19.310Z,1488
2018-10-05T08:02:27.957Z,1488
2018-10-05T08:03:36.590Z,1496
2018-10-05T08:04:45.235Z,1504
2018-10-05T08:05:53.872Z,1504
2018-10-05T08:07:02.526Z,1504
2018-10-05T08:08:11.159Z,1512
2018-10-05T08:09:19.860Z,1512
2018-10-05T08:10:28.442Z,1520
2018-10-05T08:11:37.093Z,1524
2018-10-05T08:12:45.992Z,1524
2018-10-05T08:13:54.638Z,1528
2018-10-05T08:15:03.277Z,1536
2018-10-05T08:16:12.192Z,1540
2018-10-05T08:17:20.834Z,1548
2018-10-05T08:18:29.733Z,1548
2018-10-05T08:19:38.377Z,1560
2018-10-05T08:20:47.025Z,1568
2018-10-05T08:21:55.668Z,1576
2018-10-05T08:23:04.310Z,1572
2018-10-05T08:24:12.951Z,1588
2018-10-05T08:25:21.598Z,1596
2018-10-05T08:26:30.252Z,1600
2018-10-05T08:27:38.891Z,1592
2018-10-05T08:28:47.799Z,1612
2018-10-05T08:29:56.435Z,1616
2018-10-05T08:31:05.083Z,1624
2018-10-05T08:32:13.729Z,1636
2018-10-05T08:33:22.374Z,1636
2018-10-05T08:34:31.071Z,1648
2018-10-05T08:35:39.660Z,1660
2018-10-05T08:36:48.303Z,1664
2018-10-05T08:37:56.951Z,1676
2018-10-05T08:39:05.862Z,1684
2018-10-05T08:40:14.527Z,1696
2018-10-05T08:41:23.144Z,1712
2018-10-05T08:42:31.787Z,1712
2018-10-05T08:43:40.699Z,1728
2018-10-05T08:44:49.334Z,1732
2018-10-05T08:45:58.388Z,1740
2018-10-05T08:47:07.024Z,1756
2018-10-05T08:48:15.938Z,1760
2018-10-05T08:49:24.576Z,1768
2018-10-05T08:50:33.221Z,1788
2018-10-05T08:51:42.153Z,1796
2018-10-05T08:52:50.785Z,1812
2018-10-05T08:53:59.427Z,1812
2018-10-05T08:55:08.073Z,1824
2018-10-05T08:56:16.716Z,1836
2018-10-05T08:57:25.622Z,1856
2018-10-05T08:58:34.269Z,1868
2018-10-05T08:59:42.916Z,1876
2018-10-05T09:00:51.820Z,1896
2018-10-05T09:02:00.464Z,1900
2018-10-05T09:03:09.113Z,1912
2018-10-05T09:04:18.016Z,1916
2018-10-05T09:05:26.662Z,1924
2018-10-05T09:06:35.571Z,1936
2018-10-05T09:07:44.219Z,1928
2018-10-05T09:08:52.863Z,1944
2018-10-05T09:10:01.780Z,1952
2018-10-05T09:11:10.738Z,1952
2018-10-05T09:12:19.630Z,1960
2018-10-05T09:13:28.273Z,1964
2018-10-05T09:14:36.923Z,1984
2018-10-05T09:15:45.569Z,1988
2018-10-05T09:16:54.207Z,1992
2018-10-05T09:18:03.201Z,2004
2018-10-05T09:19:11.775Z,1912
2018-10-05T09:20:20.429Z,2004
2018-10-05T09:21:29.329Z,2016
2018-10-05T09:22:37.979Z,2036
2018-10-05T09:23:46.626Z,2032
2018-10-05T09:24:55.545Z,2048
2018-10-05T09:26:04.180Z,2024
2018-10-05T09:27:12.824Z,2048
2018-10-05T09:28:21.470Z,2052
2018-10-05T09:29:30.122Z,2052
2018-10-05T09:30:38.788Z,2012
2018-10-05T09:31:47.672Z,2052
2018-10-05T09:32:58.276Z,2048
2018-10-05T09:34:06.917Z,2052
2018-10-05T09:35:15.571Z,2052
2018-10-05T09:36:24.211Z,2040
2018-10-05T09:37:32.917Z,2044
2018-10-05T09:38:41.496Z,2044
2018-10-05T09:39:50.149Z,2044
2018-10-05T09:40:58.793Z,2056
2018-10-05T09:42:07.705Z,2044
2018-10-05T09:43:16.342Z,2036
2018-10-05T09:44:24.998Z,2040
2018-10-05T09:45:33.639Z,2040
2018-10-05T09:46:42.287Z,2044
2018-10-05T09:47:50.923Z,2060
2018-10-05T09:48:59.571Z,1980
2018-10-05T09:50:08.226Z,2068
2018-10-05T09:51:17.132Z,2060
2018-10-05T09:52:25.938Z,2032
2018-10-05T09:53:34.830Z,2020
2018-10-05T09:54:43.475Z,2052
2018-10-05T09:55:52.121Z,2020
2018-10-05T09:57:00.769Z,2088
2018-10-05T09:58:09.404Z,2092
2018-10-05T09:59:18.054Z,2072
2018-10-05T10:00:27.065Z,2072
2018-10-05T10:01:35.990Z,2064
2018-10-05T10:02:44.624Z,2092
2018-10-05T10:03:53.269Z,2104
2018-10-05T10:05:01.912Z,2084
2018-10-05T10:06:10.825Z,2104
2018-10-05T10:07:19.468Z,2092
2018-10-05T10:08:28.122Z,2084
2018-10-05T10:09:36.760Z,2108
2018-10-05T10:10:45.403Z,2120
2018-10-05T10:11:54.063Z,2104
2018-10-05T10:13:02.706Z,2092
2018-10-05T10:14:11.619Z,2084
2018-10-05T10:15:20.251Z,2140
2018-10-05T10:16:28.901Z,2160
2018-10-05T10:17:37.548Z,2160
2018-10-05T10:18:46.455Z,2168
2018-10-05T10:19:55.099Z,2192
2018-10-05T10:21:03.749Z,2172
2018-10-05T10:22:12.653Z,2176
2018-10-05T10:23:21.301Z,2180
2018-10-05T10:24:29.957Z,2172
2018-10-05T10:25:38.869Z,2148
2018-10-05T10:26:47.510Z,2188
2018-10-05T10:27:56.189Z,2188
2018-10-05T10:29:04.891Z,2180
2018-10-05T10:30:14.015Z,2196
2018-10-05T10:31:22.668Z,2188
2018-10-05T10:32:31.588Z,2168
2018-10-05T10:33:40.316Z,2184
2018-10-05T10:34:49.593Z,2176
2018-10-05T10:35:58.204Z,2196
2018-10-05T10:37:07.385Z,2208
2018-10-05T10:38:16.041Z,2200
2018-10-05T10:39:24.677Z,2196
2018-10-05T10:40:33.326Z,2232
2018-10-05T10:41:42.241Z,2184
2018-10-05T10:42:50.891Z,2208
2018-10-05T10:43:59.535Z,2196
2018-10-05T10:45:08.496Z,2192
2018-10-05T10:46:17.139Z,2196
2018-10-05T10:47:25.783Z,2168
2018-10-05T10:48:34.436Z,2188
2018-10-05T10:49:43.082Z,2200
2018-10-05T10:50:51.729Z,2212
2018-10-05T10:52:00.909Z,2224
2018-10-05T10:53:09.568Z,2224
2018-10-05T10:54:18.207Z,2228
2018-10-05T10:55:26.851Z,2244
2018-10-05T10:56:35.493Z,2236
2018-10-05T10:57:44.149Z,2224
2018-10-05T10:58:53.059Z,2248
2018-10-05T11:00:01.707Z,2284
2018-10-05T11:01:10.348Z,2256
2018-10-05T11:02:18.995Z,2244
2018-10-05T11:03:27.642Z,2244
2018-10-05T11:04:36.398Z,2256
2018-10-05T11:05:44.941Z,2264
2018-10-05T11:06:53.582Z,2276
2018-10-05T11:08:02.224Z,2284
2018-10-05T11:09:11.137Z,2288
2018-10-05T11:10:20.080Z,2308
2018-10-05T11:11:28.693Z,2324
2018-10-05T11:12:37.342Z,2324
2018-10-05T11:13:45.996Z,2352
2018-10-05T11:14:54.635Z,2316
2018-10-05T11:16:03.286Z,2320
2018-10-05T11:17:11.934Z,2284
2018-10-05T11:18:20.581Z,2100
2018-10-05T11:19:29.233Z,2396
2018-10-05T11:20:37.881Z,2352
2018-10-05T11:21:46.529Z,2308
2018-10-05T11:22:55.176Z,2336
2018-10-05T11:24:04.091Z,2360
2018-10-05T11:25:12.733Z,2200
2018-10-05T11:26:21.388Z,2216
2018-10-05T11:27:30.301Z,2384
2018-10-05T11:28:38.953Z,2372
2018-10-05T11:29:47.953Z,2420
2018-10-05T11:30:56.571Z,2392
2018-10-05T11:32:05.218Z,2424
2018-10-05T11:33:13.868Z,2412
2018-10-05T11:34:22.510Z,2228
2018-10-05T11:35:31.164Z,2380
2018-10-05T11:36:39.808Z,2408
2018-10-05T11:37:48.458Z,2424
2018-10-05T11:38:57.104Z,2380
2018-10-05T11:40:05.797Z,2336
2018-10-05T11:41:14.441Z,2400
2018-10-05T11:42:23.110Z,2412
2018-10-05T11:43:31.838Z,2384
2018-10-05T11:44:40.539Z,2388
2018-10-05T11:45:49.188Z,2396
2018-10-05T11:46:57.838Z,2380
2018-10-05T11:48:06.491Z,2396
2018-10-05T11:49:15.141Z,2392
2018-10-05T11:50:24.053Z,2384
2018-10-05T11:51:32.698Z,2376
2018-10-05T11:52:41.618Z,2376
2018-10-05T11:53:50.264Z,2352
2018-10-05T11:54:58.912Z,2372
2018-10-05T11:56:07.555Z,2364
2018-10-05T11:57:16.206Z,2340
2018-10-05T11:58:24.855Z,2280
2018-10-05T11:59:33.546Z,2348
2018-10-05T12:00:42.156Z,2180
2018-10-05T12:01:51.063Z,2356
2018-10-05T12:02:59.704Z,2396
2018-10-05T12:04:08.350Z,2380
2018-10-05T12:05:17.762Z,2384
2018-10-05T12:06:26.354Z,2384
2018-10-05T12:07:35.002Z,2332
2018-10-05T12:08:43.648Z,2292
2018-10-05T12:09:52.567Z,2224
2018-10-05T12:11:01.212Z,2172
2018-10-05T12:12:09.857Z,2348
2018-10-05T12:13:18.501Z,2364
2018-10-05T12:14:27.422Z,2372
2018-10-05T12:15:36.065Z,2356
2018-10-05T12:16:44.708Z,2360
2018-10-05T12:17:53.353Z,2360
2018-10-05T12:19:01.998Z,2364
2018-10-05T12:20:10.655Z,2352
2018-10-05T12:21:19.297Z,2288
2018-10-05T12:22:27.949Z,2316
2018-10-05T12:23:36.587Z,2320
2018-10-05T12:24:45.243Z,2324
2018-10-05T12:25:53.888Z,2208
2018-10-05T12:27:02.570Z,2368
2018-10-05T12:28:11.238Z,2324
2018-10-05T12:29:20.630Z,2336
2018-10-05T12:30:29.283Z,2300
2018-10-05T12:31:37.930Z,2348
2018-10-05T12:32:46.986Z,2304
2018-10-05T12:33:55.638Z,2280
2018-10-05T12:35:04.609Z,2328
2018-10-05T12:36:13.269Z,2232
2018-10-05T12:37:21.921Z,2312
2018-10-05T12:38:30.556Z,2308
2018-10-05T12:39:39.521Z,2268
2018-10-05T12:40:48.203Z,2248
2018-10-05T12:41:56.900Z,2272
2018-10-05T12:43:05.827Z,2284
2018-10-05T12:44:14.479Z,2272
2018-10-05T12:45:23.398Z,2236
2018-10-05T12:46:32.322Z,2192
2018-10-05T12:47:40.958Z,2228
2018-10-05T12:48:49.876Z,2256
2018-10-05T12:49:58.520Z,2236
2018-10-05T12:51:07.175Z,2248
2018-10-05T12:52:16.093Z,2228
2018-10-05T12:53:24.737Z,2192
2018-10-05T12:54:33.694Z,2196
2018-10-05T12:55:42.312Z,2188
2018-10-05T12:56:50.971Z,2148
2018-10-05T12:57:59.656Z,2124
2018-10-05T12:59:08.267Z,2116
2018-10-05T13:00:16.906Z,2084
2018-10-05T13:01:25.561Z,2032
2018-10-05T13:02:34.209Z,2084
2018-10-05T13:03:42.855Z,2060
2018-10-05T13:04:51.532Z,2056
2018-10-05T13:06:00.482Z,2040
2018-10-05T13:07:09.128Z,2044
2018-10-05T13:08:18.047Z,2012
2018-10-05T13:09:26.684Z,2008
2018-10-05T13:10:35.335Z,2016
2018-10-05T13:11:43.988Z,1996
2018-10-05T13:12:52.931Z,1980
2018-10-05T13:14:01.550Z,1976
2018-10-05T13:15:10.205Z,1972
2018-10-05T13:16:18.859Z,1972
2018-10-05T13:17:27.507Z,1980
2018-10-05T13:18:36.150Z,1980
2018-10-05T13:19:44.807Z,1948
2018-10-05T13:20:53.712Z,1920
2018-10-05T13:22:02.367Z,1908
2018-10-05T13:23:11.005Z,1920
2018-10-05T13:24:19.661Z,1904
2018-10-05T13:25:28.308Z,1840
2018-10-05T13:26:36.956Z,1828
2018-10-05T13:27:46.129Z,1836
2018-10-05T13:28:54.775Z,1872
2018-10-05T13:30:03.423Z,1868
2018-10-05T13:31:12.075Z,1876
2018-10-05T13:32:20.727Z,1880
2018-10-05T13:33:29.370Z,1876
2018-10-05T13:34:38.285Z,1856
2018-10-05T13:35:46.935Z,1844
2018-10-05T13:36:55.587Z,1824
2018-10-05T13:38:04.229Z,1848
2018-10-05T13:39:13.145Z,1812
2018-10-05T13:40:21.793Z,1800
2018-10-05T13:41:30.446Z,1792
2018-10-05T13:42:39.087Z,1748
2018-10-05T13:43:47.997Z,1760
2018-10-05T13:44:56.642Z,1760
2018-10-05T13:46:05.295Z,1736
2018-10-05T13:47:13.938Z,1716
2018-10-05T13:48:22.587Z,1680
2018-10-05T13:49:31.232Z,1668
2018-10-05T13:50:40.420Z,1660
2018-10-05T13:51:49.332Z,1656
2018-10-05T13:52:57.980Z,1636
2018-10-05T13:54:06.630Z,1644
2018-10-05T13:55:15.274Z,1632
2018-10-05T13:56:23.924Z,1616
2018-10-05T13:57:32.572Z,1604
2018-10-05T13:58:41.545Z,1596
2018-10-05T13:59:50.193Z,1580
2018-10-05T14:00:58.844Z,1568
2018-10-05T14:02:07.491Z,1556
2018-10-05T14:03:16.141Z,1552
2018-10-05T14:04:24.784Z,1536
2018-10-05T14:05:33.437Z,1520
2018-10-05T14:06:42.089Z,1496
2018-10-05T14:07:50.740Z,1504
2018-10-05T14:08:59.391Z,1484
2018-10-05T14:10:08.035Z,1480
2018-10-05T14:11:16.957Z,1472
2018-10-05T14:12:25.862Z,1452
2018-10-05T14:13:34.521Z,1444
2018-10-05T14:14:43.161Z,1428
2018-10-05T14:15:51.816Z,1424
2018-10-05T14:17:00.722Z,1412
2018-10-05T14:18:09.379Z,1400
2018-10-05T14:19:18.085Z,1392
2018-10-05T14:20:27.030Z,1388
2018-10-05T14:21:35.685Z,1388
2018-10-05T14:22:44.575Z,1376
2018-10-05T14:23:53.222Z,1368
2018-10-05T14:25:01.866Z,1356
2018-10-05T14:26:10.509Z,1348
2018-10-05T14:27:19.153Z,1332
2018-10-05T14:28:27.811Z,1328
2018-10-05T14:29:36.453Z,1316
2018-10-05T14:30:45.108Z,1308
2018-10-05T14:31:53.744Z,1300
2018-10-05T14:33:02.402Z,1292
2018-10-05T14:34:11.046Z,1284
2018-10-05T14:35:19.963Z,1272
2018-10-05T14:36:28.600Z,1264
2018-10-05T14:37:37.259Z,1256
2018-10-05T14:38:45.903Z,1252
2018-10-05T14:39:54.553Z,1244
2018-10-05T14:41:03.195Z,1232
2018-10-05T14:42:12.108Z,1224
2018-10-05T14:43:21.029Z,1208
2018-10-05T14:44:29.680Z,1204
2018-10-05T14:45:38.687Z,1188
2018-10-05T14:46:47.960Z,1180
2018-10-05T14:47:56.612Z,1176
2018-10-05T14:49:05.261Z,1164
2018-10-05T14:50:13.916Z,1152
2018-10-05T14:51:22.557Z,1136
2018-10-05T14:52:31.209Z,1124
2018-10-05T14:53:39.853Z,1116
2018-10-05T14:54:48.776Z,1104
2018-10-05T14:55:57.676Z,1096
2018-10-05T14:57:06.415Z,1088
2018-10-05T14:58:15.360Z,1076
2018-10-05T14:59:24.017Z,1068
2018-10-05T15:00:32.663Z,1060
2018-10-05T15:01:41.307Z,1048
2018-10-05T15:02:49.951Z,1036
2018-10-05T15:03:58.870Z,1032
2018-10-05T15:05:07.795Z,1028
2018-10-05T15:06:16.435Z,1024
2018-10-05T15:07:25.090Z,1008
2018-10-05T15:08:33.727Z,1000
2018-10-05T15:09:42.377Z,992
2018-10-05T15:10:51.032Z,992
2018-10-05T15:11:59.673Z,984
2018-10-05T15:13:08.396Z,976
2018-10-05T15:14:17.315Z,968
2018-10-05T15:15:25.970Z,964
2018-10-05T15:16:34.874Z,960
2018-10-05T15:17:43.853Z,952
2018-10-05T15:18:52.496Z,944
2018-10-05T15:20:01.139Z,936
2018-10-05T15:21:09.785Z,928
2018-10-05T15:22:18.432Z,924
2018-10-05T15:23:27.352Z,916
2018-10-05T15:24:36.257Z,908
2018-10-05T15:25:44.909Z,892
2018-10-05T15:26:53.811Z,884
2018-10-05T15:28:02.469Z,876
2018-10-05T15:29:11.110Z,872
2018-10-05T15:30:19.763Z,864
2018-10-05T15:31:28.399Z,856
2018-10-05T15:32:37.339Z,852
2018-10-05T15:33:45.965Z,844
2018-10-05T15:34:54.614Z,836
2018-10-05T15:36:03.518Z,832
2018-10-05T15:37:12.176Z,828
2018-10-05T15:38:20.820Z,824
2018-10-05T15:39:29.469Z,816
2018-10-05T15:40:38.118Z,808
2018-10-05T15:41:46.757Z,804
2018-10-05T15:42:55.407Z,800
2018-10-05T15:44:04.052Z,792
2018-10-05T15:45:12.712Z,784
2018-10-05T15:46:21.605Z,776
2018-10-05T15:47:30.258Z,776
2018-10-05T15:48:38.904Z,768
2018-10-05T15:49:47.558Z,760
2018-10-05T15:50:56.197Z,756